sensor_id;sensor_type;location;lat;lon;timestamp;temperature;humidity
7666;DHT22;3875;46.562;4.898;2022-08-24T00:01:16;24.40;66.00
7666;DHT22;3875;46.562;4.898;2022-08-24T00:03:44;24.30;66.10
7666;DHT22;3875;46.562;4.898;2022-08-24T00:06:13;24.30;66.30
7666;DHT22;3875;46.562;4.898;2022-08-24T00:08:40;24.30;66.30
7666;DHT22;3875;46.562;4.898;2022-08-24T00:11:07;24.20;66.20
7666;DHT22;3875;46.562;4.898;2022-08-24T00:13:33;24.20;66.50
7666;DHT22;3875;46.562;4.898;2022-08-24T00:15:59;24.10;66.50
7666;DHT22;3875;46.562;4.898;2022-08-24T00:18:26;24.10;66.60
7666;DHT22;3875;46.562;4.898;2022-08-24T00:20:52;24.10;66.90
7666;DHT22;3875;46.562;4.898;2022-08-24T00:23:18;24.10;66.80
7666;DHT22;3875;46.562;4.898;2022-08-24T00:25:44;24.00;66.90
7666;DHT22;3875;46.562;4.898;2022-08-24T00:28:09;24.00;66.90
7666;DHT22;3875;46.562;4.898;2022-08-24T00:30:35;23.90;67.30
7666;DHT22;3875;46.562;4.898;2022-08-24T00:33:01;23.90;67.30
7666;DHT22;3875;46.562;4.898;2022-08-24T00:35:27;23.90;67.50
7666;DHT22;3875;46.562;4.898;2022-08-24T00:37:53;23.80;67.70
7666;DHT22;3875;46.562;4.898;2022-08-24T00:42:48;23.80;67.70
7666;DHT22;3875;46.562;4.898;2022-08-24T00:45:17;23.80;67.70
7666;DHT22;3875;46.562;4.898;2022-08-24T00:47:50;23.80;67.80
7666;DHT22;3875;46.562;4.898;2022-08-24T00:50:53;23.80;68.10
7666;DHT22;3875;46.562;4.898;2022-08-24T00:53:28;23.70;68.50
7666;DHT22;3875;46.562;4.898;2022-08-24T00:55:58;23.60;68.60
7666;DHT22;3875;46.562;4.898;2022-08-24T00:58:33;23.60;68.60
7666;DHT22;3875;46.562;4.898;2022-08-24T01:01:01;23.70;68.60
7666;DHT22;3875;46.562;4.898;2022-08-24T01:03:28;23.60;68.70
7666;DHT22;3875;46.562;4.898;2022-08-24T01:05:54;23.60;68.50
7666;DHT22;3875;46.562;4.898;2022-08-24T01:08:21;23.60;68.70
7666;DHT22;3875;46.562;4.898;2022-08-24T01:10:54;23.60;68.30
7666;DHT22;3875;46.562;4.898;2022-08-24T01:13:22;23.60;68.40
7666;DHT22;3875;46.562;4.898;2022-08-24T01:15:52;23.60;68.40
7666;DHT22;3875;46.562;4.898;2022-08-24T01:18:22;23.60;68.00
7666;DHT22;3875;46.562;4.898;2022-08-24T01:21:14;23.60;68.30
7666;DHT22;3875;46.562;4.898;2022-08-24T01:23:55;23.60;68.30
7666;DHT22;3875;46.562;4.898;2022-08-24T01:26:31;23.60;68.10
7666;DHT22;3875;46.562;4.898;2022-08-24T01:29:10;23.60;67.90
7666;DHT22;3875;46.562;4.898;2022-08-24T01:31:38;23.60;67.90
7666;DHT22;3875;46.562;4.898;2022-08-24T01:34:04;23.50;68.30
7666;DHT22;3875;46.562;4.898;2022-08-24T01:39:00;23.40;68.20
7666;DHT22;3875;46.562;4.898;2022-08-24T01:41:27;23.40;68.40
7666;DHT22;3875;46.562;4.898;2022-08-24T01:43:53;23.40;68.20
7666;DHT22;3875;46.562;4.898;2022-08-24T01:46:19;23.40;68.20
7666;DHT22;3875;46.562;4.898;2022-08-24T01:48:45;23.40;68.30
7666;DHT22;3875;46.562;4.898;2022-08-24T01:51:10;23.30;68.30
7666;DHT22;3875;46.562;4.898;2022-08-24T01:53:36;23.30;68.50
7666;DHT22;3875;46.562;4.898;2022-08-24T01:56:02;23.20;68.50
7666;DHT22;3875;46.562;4.898;2022-08-24T01:58:28;23.20;68.70
7666;DHT22;3875;46.562;4.898;2022-08-24T02:00:54;23.20;68.90
7666;DHT22;3875;46.562;4.898;2022-08-24T02:03:20;23.10;68.80
7666;DHT22;3875;46.562;4.898;2022-08-24T02:05:46;23.20;68.90
7666;DHT22;3875;46.562;4.898;2022-08-24T02:08:12;23.20;68.70
7666;DHT22;3875;46.562;4.898;2022-08-24T02:10:38;23.10;69.10
7666;DHT22;3875;46.562;4.898;2022-08-24T02:13:04;23.00;69.20
7666;DHT22;3875;46.562;4.898;2022-08-24T02:15:34;23.00;69.70
7666;DHT22;3875;46.562;4.898;2022-08-24T02:18:03;22.90;69.60
7666;DHT22;3875;46.562;4.898;2022-08-24T02:20:29;22.90;69.50
7666;DHT22;3875;46.562;4.898;2022-08-24T02:22:55;22.90;69.50
7666;DHT22;3875;46.562;4.898;2022-08-24T02:25:21;22.90;69.80
7666;DHT22;3875;46.562;4.898;2022-08-24T02:27:48;22.90;69.70
7666;DHT22;3875;46.562;4.898;2022-08-24T02:30:14;22.80;69.80
7666;DHT22;3875;46.562;4.898;2022-08-24T02:32:41;22.80;70.20
7666;DHT22;3875;46.562;4.898;2022-08-24T02:35:07;22.70;70.50
7666;DHT22;3875;46.562;4.898;2022-08-24T02:37:33;22.70;70.30
7666;DHT22;3875;46.562;4.898;2022-08-24T02:39:59;22.70;70.30
7666;DHT22;3875;46.562;4.898;2022-08-24T02:42:26;22.60;70.90
7666;DHT22;3875;46.562;4.898;2022-08-24T02:44:52;22.60;70.80
7666;DHT22;3875;46.562;4.898;2022-08-24T02:47:18;22.60;70.50
7666;DHT22;3875;46.562;4.898;2022-08-24T02:49:43;22.60;70.60
7666;DHT22;3875;46.562;4.898;2022-08-24T02:52:09;22.60;71.00
7666;DHT22;3875;46.562;4.898;2022-08-24T02:54:35;22.60;70.90
7666;DHT22;3875;46.562;4.898;2022-08-24T02:57:00;22.60;70.60
7666;DHT22;3875;46.562;4.898;2022-08-24T02:59:26;22.50;71.00
7666;DHT22;3875;46.562;4.898;2022-08-24T03:01:52;22.50;70.80
7666;DHT22;3875;46.562;4.898;2022-08-24T03:04:18;22.50;70.60
7666;DHT22;3875;46.562;4.898;2022-08-24T03:06:44;22.50;70.70
7666;DHT22;3875;46.562;4.898;2022-08-24T03:09:10;22.50;70.60
7666;DHT22;3875;46.562;4.898;2022-08-24T03:11:36;22.50;70.50
7666;DHT22;3875;46.562;4.898;2022-08-24T03:14:02;22.50;70.40
7666;DHT22;3875;46.562;4.898;2022-08-24T03:16:29;22.50;70.40
7666;DHT22;3875;46.562;4.898;2022-08-24T03:18:54;22.50;70.90
7666;DHT22;3875;46.562;4.898;2022-08-24T03:21:20;22.40;70.80
7666;DHT22;3875;46.562;4.898;2022-08-24T03:23:46;22.30;71.00
7666;DHT22;3875;46.562;4.898;2022-08-24T03:26:12;22.30;71.20
7666;DHT22;3875;46.562;4.898;2022-08-24T03:28:38;22.30;71.10
7666;DHT22;3875;46.562;4.898;2022-08-24T03:31:04;22.30;71.00
7666;DHT22;3875;46.562;4.898;2022-08-24T03:33:30;22.20;71.30
7666;DHT22;3875;46.562;4.898;2022-08-24T03:35:56;22.20;71.30
7666;DHT22;3875;46.562;4.898;2022-08-24T03:38:22;22.10;71.70
7666;DHT22;3875;46.562;4.898;2022-08-24T03:40:48;22.10;71.40
7666;DHT22;3875;46.562;4.898;2022-08-24T03:43:14;22.10;72.00
7666;DHT22;3875;46.562;4.898;2022-08-24T03:46:00;22.00;71.90
7666;DHT22;3875;46.562;4.898;2022-08-24T03:48:28;22.00;71.90
7666;DHT22;3875;46.562;4.898;2022-08-24T03:50:53;22.00;71.90
7666;DHT22;3875;46.562;4.898;2022-08-24T03:53:19;22.00;72.00
7666;DHT22;3875;46.562;4.898;2022-08-24T03:55:45;22.00;71.90
7666;DHT22;3875;46.562;4.898;2022-08-24T03:58:11;22.00;71.70
7666;DHT22;3875;46.562;4.898;2022-08-24T04:00:36;21.90;72.70
7666;DHT22;3875;46.562;4.898;2022-08-24T04:03:07;21.80;72.50
7666;DHT22;3875;46.562;4.898;2022-08-24T04:05:33;21.80;72.20
7666;DHT22;3875;46.562;4.898;2022-08-24T04:07:59;21.80;72.40
7666;DHT22;3875;46.562;4.898;2022-08-24T04:10:25;21.80;72.40
7666;DHT22;3875;46.562;4.898;2022-08-24T04:12:50;21.80;73.00
7666;DHT22;3875;46.562;4.898;2022-08-24T04:15:17;21.70;73.30
7666;DHT22;3875;46.562;4.898;2022-08-24T04:17:43;21.60;73.50
7666;DHT22;3875;46.562;4.898;2022-08-24T04:20:09;21.60;72.90
7666;DHT22;3875;46.562;4.898;2022-08-24T04:22:35;21.60;72.90
7666;DHT22;3875;46.562;4.898;2022-08-24T04:25:02;21.60;73.20
7666;DHT22;3875;46.562;4.898;2022-08-24T04:27:27;21.60;73.30
7666;DHT22;3875;46.562;4.898;2022-08-24T04:29:53;21.60;72.90
7666;DHT22;3875;46.562;4.898;2022-08-24T04:32:19;21.60;72.90
7666;DHT22;3875;46.562;4.898;2022-08-24T04:34:45;21.60;73.00
7666;DHT22;3875;46.562;4.898;2022-08-24T04:37:12;21.60;72.90
7666;DHT22;3875;46.562;4.898;2022-08-24T04:39:38;21.50;73.10
7666;DHT22;3875;46.562;4.898;2022-08-24T04:42:04;21.50;73.10
7666;DHT22;3875;46.562;4.898;2022-08-24T04:44:30;21.50;73.40
7666;DHT22;3875;46.562;4.898;2022-08-24T04:46:56;21.40;73.30
7666;DHT22;3875;46.562;4.898;2022-08-24T04:49:22;21.40;73.80
7666;DHT22;3875;46.562;4.898;2022-08-24T04:51:47;21.30;74.00
7666;DHT22;3875;46.562;4.898;2022-08-24T04:54:14;21.30;73.60
7666;DHT22;3875;46.562;4.898;2022-08-24T04:56:40;21.30;73.80
7666;DHT22;3875;46.562;4.898;2022-08-24T04:59:06;21.30;73.70
7666;DHT22;3875;46.562;4.898;2022-08-24T05:01:32;21.30;73.90
7666;DHT22;3875;46.562;4.898;2022-08-24T05:03:58;21.30;73.50
7666;DHT22;3875;46.562;4.898;2022-08-24T05:06:27;21.30;73.60
7666;DHT22;3875;46.562;4.898;2022-08-24T05:08:53;21.30;73.80
7666;DHT22;3875;46.562;4.898;2022-08-24T05:11:20;21.30;73.80
7666;DHT22;3875;46.562;4.898;2022-08-24T05:13:46;21.30;73.60
7666;DHT22;3875;46.562;4.898;2022-08-24T05:16:15;21.40;73.50
7666;DHT22;3875;46.562;4.898;2022-08-24T05:18:42;21.40;73.90
7666;DHT22;3875;46.562;4.898;2022-08-24T05:21:14;21.40;74.40
7666;DHT22;3875;46.562;4.898;2022-08-24T05:23:40;21.40;74.10
7666;DHT22;3875;46.562;4.898;2022-08-24T05:26:12;21.40;73.90
7666;DHT22;3875;46.562;4.898;2022-08-24T05:28:38;21.40;73.80
7666;DHT22;3875;46.562;4.898;2022-08-24T05:31:14;21.50;73.50
7666;DHT22;3875;46.562;4.898;2022-08-24T05:33:40;21.60;73.50
7666;DHT22;3875;46.562;4.898;2022-08-24T05:36:15;21.60;73.50
7666;DHT22;3875;46.562;4.898;2022-08-24T05:38:41;21.60;73.30
7666;DHT22;3875;46.562;4.898;2022-08-24T05:41:06;21.70;73.10
7666;DHT22;3875;46.562;4.898;2022-08-24T05:43:32;21.70;72.90
7666;DHT22;3875;46.562;4.898;2022-08-24T05:45:58;21.80;73.10
7666;DHT22;3875;46.562;4.898;2022-08-24T05:48:24;21.80;73.40
7666;DHT22;3875;46.562;4.898;2022-08-24T05:50:53;21.80;73.20
7666;DHT22;3875;46.562;4.898;2022-08-24T05:53:19;21.90;73.20
7666;DHT22;3875;46.562;4.898;2022-08-24T05:55:44;21.90;73.10
7666;DHT22;3875;46.562;4.898;2022-08-24T05:58:11;21.90;73.40
7666;DHT22;3875;46.562;4.898;2022-08-24T06:00:37;21.90;73.60
7666;DHT22;3875;46.562;4.898;2022-08-24T06:03:02;21.80;73.70
7666;DHT22;3875;46.562;4.898;2022-08-24T06:05:28;21.70;73.90
7666;DHT22;3875;46.562;4.898;2022-08-24T06:07:54;21.70;73.80
7666;DHT22;3875;46.562;4.898;2022-08-24T06:10:20;21.80;73.60
7666;DHT22;3875;46.562;4.898;2022-08-24T06:12:46;22.00;73.30
7666;DHT22;3875;46.562;4.898;2022-08-24T06:15:13;22.10;73.10
7666;DHT22;3875;46.562;4.898;2022-08-24T06:17:39;22.10;73.00
7666;DHT22;3875;46.562;4.898;2022-08-24T06:20:05;22.20;72.50
7666;DHT22;3875;46.562;4.898;2022-08-24T06:22:32;22.30;72.40
7666;DHT22;3875;46.562;4.898;2022-08-24T06:24:58;22.40;72.00
7666;DHT22;3875;46.562;4.898;2022-08-24T06:27:42;22.60;71.90
7666;DHT22;3875;46.562;4.898;2022-08-24T06:30:09;22.70;71.70
7666;DHT22;3875;46.562;4.898;2022-08-24T06:32:35;22.80;71.30
7666;DHT22;3875;46.562;4.898;2022-08-24T06:35:02;22.90;70.60
7666;DHT22;3875;46.562;4.898;2022-08-24T06:37:27;23.00;69.90
7666;DHT22;3875;46.562;4.898;2022-08-24T06:39:54;23.10;68.90
7666;DHT22;3875;46.562;4.898;2022-08-24T06:42:21;23.20;68.70
7666;DHT22;3875;46.562;4.898;2022-08-24T06:44:49;23.10;68.50
7666;DHT22;3875;46.562;4.898;2022-08-24T06:47:15;23.00;68.60
7666;DHT22;3875;46.562;4.898;2022-08-24T06:49:41;23.00;68.80
7666;DHT22;3875;46.562;4.898;2022-08-24T06:52:07;23.10;69.70
7666;DHT22;3875;46.562;4.898;2022-08-24T06:54:34;23.20;68.20
7666;DHT22;3875;46.562;4.898;2022-08-24T06:57:00;23.10;67.70
7666;DHT22;3875;46.562;4.898;2022-08-24T06:59:26;23.10;68.20
7666;DHT22;3875;46.562;4.898;2022-08-24T07:01:54;23.10;68.60
7666;DHT22;3875;46.562;4.898;2022-08-24T07:04:21;23.10;68.40
7666;DHT22;3875;46.562;4.898;2022-08-24T07:06:48;23.10;68.70
7666;DHT22;3875;46.562;4.898;2022-08-24T07:09:14;23.10;68.80
7666;DHT22;3875;46.562;4.898;2022-08-24T07:11:40;23.20;69.10
7666;DHT22;3875;46.562;4.898;2022-08-24T07:14:06;23.30;68.60
7666;DHT22;3875;46.562;4.898;2022-08-24T07:16:33;23.30;68.70
7666;DHT22;3875;46.562;4.898;2022-08-24T07:19:00;23.40;69.30
7666;DHT22;3875;46.562;4.898;2022-08-24T07:21:27;23.50;68.10
7666;DHT22;3875;46.562;4.898;2022-08-24T07:23:55;23.40;68.00
7666;DHT22;3875;46.562;4.898;2022-08-24T07:26:22;23.50;68.70
7666;DHT22;3875;46.562;4.898;2022-08-24T07:28:53;23.60;68.00
7666;DHT22;3875;46.562;4.898;2022-08-24T07:31:20;23.80;68.00
7666;DHT22;3875;46.562;4.898;2022-08-24T07:33:46;23.80;67.90
7666;DHT22;3875;46.562;4.898;2022-08-24T07:36:12;23.80;67.60
7666;DHT22;3875;46.562;4.898;2022-08-24T07:38:39;24.00;67.40
7666;DHT22;3875;46.562;4.898;2022-08-24T07:41:05;24.00;67.10
7666;DHT22;3875;46.562;4.898;2022-08-24T07:43:30;24.20;67.80
7666;DHT22;3875;46.562;4.898;2022-08-24T07:45:56;24.20;67.00
7666;DHT22;3875;46.562;4.898;2022-08-24T07:48:22;24.10;67.10
7666;DHT22;3875;46.562;4.898;2022-08-24T07:50:48;24.20;67.10
7666;DHT22;3875;46.562;4.898;2022-08-24T07:53:13;24.20;66.90
7666;DHT22;3875;46.562;4.898;2022-08-24T07:55:39;24.40;66.60
7666;DHT22;3875;46.562;4.898;2022-08-24T07:58:05;24.60;66.50
7666;DHT22;3875;46.562;4.898;2022-08-24T08:00:31;24.80;65.60
7666;DHT22;3875;46.562;4.898;2022-08-24T08:02:56;24.80;65.80
7666;DHT22;3875;46.562;4.898;2022-08-24T08:05:23;24.80;65.60
7666;DHT22;3875;46.562;4.898;2022-08-24T08:07:49;24.80;65.30
7666;DHT22;3875;46.562;4.898;2022-08-24T08:10:15;24.80;65.50
7666;DHT22;3875;46.562;4.898;2022-08-24T08:12:41;25.00;65.30
7666;DHT22;3875;46.562;4.898;2022-08-24T08:15:08;25.10;65.10
7666;DHT22;3875;46.562;4.898;2022-08-24T08:17:35;25.30;64.60
7666;DHT22;3875;46.562;4.898;2022-08-24T08:20:03;25.50;63.90
7666;DHT22;3875;46.562;4.898;2022-08-24T08:22:29;25.60;63.30
7666;DHT22;3875;46.562;4.898;2022-08-24T08:25:13;25.80;63.60
7666;DHT22;3875;46.562;4.898;2022-08-24T08:27:39;26.00;62.50
7666;DHT22;3875;46.562;4.898;2022-08-24T08:30:05;26.20;62.80
7666;DHT22;3875;46.562;4.898;2022-08-24T08:32:31;26.50;62.40
7666;DHT22;3875;46.562;4.898;2022-08-24T08:34:57;26.90;61.60
7666;DHT22;3875;46.562;4.898;2022-08-24T08:37:23;27.20;60.50
7666;DHT22;3875;46.562;4.898;2022-08-24T08:39:49;27.30;59.80
7666;DHT22;3875;46.562;4.898;2022-08-24T08:55:43;27.50;58.90
7666;DHT22;3875;46.562;4.898;2022-08-24T09:07:02;27.80;57.50
7666;DHT22;3875;46.562;4.898;2022-08-24T09:24:02;28.50;54.90
7666;DHT22;3875;46.562;4.898;2022-08-24T09:27:04;28.50;55.90
7666;DHT22;3875;46.562;4.898;2022-08-24T09:35:00;29.20;54.40
7666;DHT22;3875;46.562;4.898;2022-08-24T09:43:09;29.80;52.70
7666;DHT22;3875;46.562;4.898;2022-08-24T09:55:45;30.30;52.40
7666;DHT22;3875;46.562;4.898;2022-08-24T09:58:39;30.60;50.40
7666;DHT22;3875;46.562;4.898;2022-08-24T10:20:42;31.30;49.40
7666;DHT22;3875;46.562;4.898;2022-08-24T10:26:21;31.40;49.70
7666;DHT22;3875;46.562;4.898;2022-08-24T10:31:39;31.80;47.40
7666;DHT22;3875;46.562;4.898;2022-08-24T10:40:24;32.20;47.40
7666;DHT22;3875;46.562;4.898;2022-08-24T10:54:44;33.20;45.80
7666;DHT22;3875;46.562;4.898;2022-08-24T10:57:33;33.10;46.10
7666;DHT22;3875;46.562;4.898;2022-08-24T11:00:16;33.20;45.90
7666;DHT22;3875;46.562;4.898;2022-08-24T11:02:45;33.60;44.50
7666;DHT22;3875;46.562;4.898;2022-08-24T11:05:15;33.60;44.60
7666;DHT22;3875;46.562;4.898;2022-08-24T11:08:00;33.50;44.40
7666;DHT22;3875;46.562;4.898;2022-08-24T11:10:38;33.40;43.80
7666;DHT22;3875;46.562;4.898;2022-08-24T11:13:21;33.60;44.40
7666;DHT22;3875;46.562;4.898;2022-08-24T11:15:57;33.80;43.90
7666;DHT22;3875;46.562;4.898;2022-08-24T11:18:25;34.10;44.10
7666;DHT22;3875;46.562;4.898;2022-08-24T11:20:53;34.30;43.40
7666;DHT22;3875;46.562;4.898;2022-08-24T11:23:25;34.30;42.00
7666;DHT22;3875;46.562;4.898;2022-08-24T11:26:03;34.00;43.40
7666;DHT22;3875;46.562;4.898;2022-08-24T11:28:39;34.10;42.00
7666;DHT22;3875;46.562;4.898;2022-08-24T11:31:34;34.00;42.00
7666;DHT22;3875;46.562;4.898;2022-08-24T11:34:10;34.00;41.90
7666;DHT22;3875;46.562;4.898;2022-08-24T11:36:41;34.10;42.40
7666;DHT22;3875;46.562;4.898;2022-08-24T11:39:30;34.40;42.20
7666;DHT22;3875;46.562;4.898;2022-08-24T11:50:27;34.90;41.20
7666;DHT22;3875;46.562;4.898;2022-08-24T11:53:37;35.00;41.60
7666;DHT22;3875;46.562;4.898;2022-08-24T12:01:31;35.10;41.10
7666;DHT22;3875;46.562;4.898;2022-08-24T12:04:08;35.10;40.60
7666;DHT22;3875;46.562;4.898;2022-08-24T12:09:33;35.10;40.70
7666;DHT22;3875;46.562;4.898;2022-08-24T12:14:56;35.70;39.80
7666;DHT22;3875;46.562;4.898;2022-08-24T12:18:15;35.70;40.00
7666;DHT22;3875;46.562;4.898;2022-08-24T12:20:32;35.80;40.10
7666;DHT22;3875;46.562;4.898;2022-08-24T12:23:35;36.00;40.00
7666;DHT22;3875;46.562;4.898;2022-08-24T12:29:04;36.00;37.90
7666;DHT22;3875;46.562;4.898;2022-08-24T12:31:53;35.80;38.30
7666;DHT22;3875;46.562;4.898;2022-08-24T12:40:27;35.80;37.40
7666;DHT22;3875;46.562;4.898;2022-08-24T12:43:17;35.80;38.00
7666;DHT22;3875;46.562;4.898;2022-08-24T12:45:41;36.10;38.20
7666;DHT22;3875;46.562;4.898;2022-08-24T12:48:25;36.20;37.70
7666;DHT22;3875;46.562;4.898;2022-08-24T13:01:54;35.80;37.50
7666;DHT22;3875;46.562;4.898;2022-08-24T13:07:28;35.70;37.40
7666;DHT22;3875;46.562;4.898;2022-08-24T13:28:36;36.70;36.70
7666;DHT22;3875;46.562;4.898;2022-08-24T13:31:20;36.90;36.40
7666;DHT22;3875;46.562;4.898;2022-08-24T13:33:58;36.70;36.50
7666;DHT22;3875;46.562;4.898;2022-08-24T13:42:14;36.80;37.10
7666;DHT22;3875;46.562;4.898;2022-08-24T13:50:09;37.00;37.00
7666;DHT22;3875;46.562;4.898;2022-08-24T14:06:50;36.30;38.10
7666;DHT22;3875;46.562;4.898;2022-08-24T14:34:27;35.40;37.70
7666;DHT22;3875;46.562;4.898;2022-08-24T14:40:28;34.80;38.40
7666;DHT22;3875;46.562;4.898;2022-08-24T14:43:00;34.50;38.40
7666;DHT22;3875;46.562;4.898;2022-08-24T14:48:51;34.50;38.30
7666;DHT22;3875;46.562;4.898;2022-08-24T15:05:23;34.80;39.20
7666;DHT22;3875;46.562;4.898;2022-08-24T15:08:07;34.70;37.90
7666;DHT22;3875;46.562;4.898;2022-08-24T15:10:47;34.60;37.90
7666;DHT22;3875;46.562;4.898;2022-08-24T15:13:37;34.60;38.20
7666;DHT22;3875;46.562;4.898;2022-08-24T15:29:29;34.70;38.30
7666;DHT22;3875;46.562;4.898;2022-08-24T15:32:10;34.50;38.50
7666;DHT22;3875;46.562;4.898;2022-08-24T15:34:51;34.40;38.60
7666;DHT22;3875;46.562;4.898;2022-08-24T15:37:38;34.40;38.10
7666;DHT22;3875;46.562;4.898;2022-08-24T15:40:21;34.20;38.30
7666;DHT22;3875;46.562;4.898;2022-08-24T15:42:48;34.20;39.30
7666;DHT22;3875;46.562;4.898;2022-08-24T15:45:15;34.20;39.00
7666;DHT22;3875;46.562;4.898;2022-08-24T15:47:44;34.10;38.30
7666;DHT22;3875;46.562;4.898;2022-08-24T15:50:20;34.00;37.40
7666;DHT22;3875;46.562;4.898;2022-08-24T15:53:04;33.90;38.20
7666;DHT22;3875;46.562;4.898;2022-08-24T15:55:43;33.90;38.40
7666;DHT22;3875;46.562;4.898;2022-08-24T15:58:29;33.90;38.00
7666;DHT22;3875;46.562;4.898;2022-08-24T16:04:01;33.70;37.90
7666;DHT22;3875;46.562;4.898;2022-08-24T16:11:48;33.80;38.30
7666;DHT22;3875;46.562;4.898;2022-08-24T16:14:40;33.90;38.20
7666;DHT22;3875;46.562;4.898;2022-08-24T16:17:39;34.20;37.10
7666;DHT22;3875;46.562;4.898;2022-08-24T16:20:13;34.20;37.70
7666;DHT22;3875;46.562;4.898;2022-08-24T16:22:50;34.60;38.00
7666;DHT22;3875;46.562;4.898;2022-08-24T16:25:43;35.20;37.70
7666;DHT22;3875;46.562;4.898;2022-08-24T16:28:12;35.70;36.50
7666;DHT22;3875;46.562;4.898;2022-08-24T16:31:05;36.10;36.40
7666;DHT22;3875;46.562;4.898;2022-08-24T16:33:40;35.80;37.20
7666;DHT22;3875;46.562;4.898;2022-08-24T16:36:08;36.30;36.80
7666;DHT22;3875;46.562;4.898;2022-08-24T16:38:36;36.90;36.50
7666;DHT22;3875;46.562;4.898;2022-08-24T16:41:05;37.10;36.80
7666;DHT22;3875;46.562;4.898;2022-08-24T16:43:35;37.40;36.40
7666;DHT22;3875;46.562;4.898;2022-08-24T16:46:03;37.60;36.30
7666;DHT22;3875;46.562;4.898;2022-08-24T16:48:29;38.40;35.90
7666;DHT22;3875;46.562;4.898;2022-08-24T16:50:56;39.50;34.90
7666;DHT22;3875;46.562;4.898;2022-08-24T16:53:22;40.50;33.90
7666;DHT22;3875;46.562;4.898;2022-08-24T16:55:49;41.00;33.70
7666;DHT22;3875;46.562;4.898;2022-08-24T16:58:15;40.90;33.30
7666;DHT22;3875;46.562;4.898;2022-08-24T17:00:41;41.30;33.20
7666;DHT22;3875;46.562;4.898;2022-08-24T17:03:06;42.20;32.80
7666;DHT22;3875;46.562;4.898;2022-08-24T17:05:33;43.00;32.60
7666;DHT22;3875;46.562;4.898;2022-08-24T17:07:59;43.70;32.30
7666;DHT22;3875;46.562;4.898;2022-08-24T17:10:26;43.30;32.30
7666;DHT22;3875;46.562;4.898;2022-08-24T17:12:52;41.80;32.90
7666;DHT22;3875;46.562;4.898;2022-08-24T17:15:19;40.00;34.20
7666;DHT22;3875;46.562;4.898;2022-08-24T17:17:53;38.40;35.50
7666;DHT22;3875;46.562;4.898;2022-08-24T17:20:20;37.20;36.70
7666;DHT22;3875;46.562;4.898;2022-08-24T17:22:46;36.30;37.60
7666;DHT22;3875;46.562;4.898;2022-08-24T17:25:15;35.70;38.40
7666;DHT22;3875;46.562;4.898;2022-08-24T17:27:42;35.10;38.90
7666;DHT22;3875;46.562;4.898;2022-08-24T17:30:09;34.80;39.30
7666;DHT22;3875;46.562;4.898;2022-08-24T17:32:35;34.40;39.90
7666;DHT22;3875;46.562;4.898;2022-08-24T17:35:01;34.10;40.10
7666;DHT22;3875;46.562;4.898;2022-08-24T17:37:28;33.90;40.40
7666;DHT22;3875;46.562;4.898;2022-08-24T17:39:55;33.60;41.10
7666;DHT22;3875;46.562;4.898;2022-08-24T17:42:21;33.50;41.40
7666;DHT22;3875;46.562;4.898;2022-08-24T17:44:47;33.30;42.00
7666;DHT22;3875;46.562;4.898;2022-08-24T17:47:14;33.20;42.20
7666;DHT22;3875;46.562;4.898;2022-08-24T17:49:40;33.00;42.40
7666;DHT22;3875;46.562;4.898;2022-08-24T17:52:06;32.90;42.40
7666;DHT22;3875;46.562;4.898;2022-08-24T17:54:32;32.70;42.50
7666;DHT22;3875;46.562;4.898;2022-08-24T17:56:58;32.60;42.90
7666;DHT22;3875;46.562;4.898;2022-08-24T17:59:34;32.50;43.30
7666;DHT22;3875;46.562;4.898;2022-08-24T18:02:03;32.40;44.00
7666;DHT22;3875;46.562;4.898;2022-08-24T18:04:30;32.10;43.60
7666;DHT22;3875;46.562;4.898;2022-08-24T18:06:58;31.90;44.20
7666;DHT22;3875;46.562;4.898;2022-08-24T18:09:38;31.80;44.50
7666;DHT22;3875;46.562;4.898;2022-08-24T18:12:06;31.70;44.60
7666;DHT22;3875;46.562;4.898;2022-08-24T18:14:33;31.50;45.00
7666;DHT22;3875;46.562;4.898;2022-08-24T18:17:01;31.40;45.20
7666;DHT22;3875;46.562;4.898;2022-08-24T18:19:30;31.30;45.40
7666;DHT22;3875;46.562;4.898;2022-08-24T18:21:56;31.20;45.60
7666;DHT22;3875;46.562;4.898;2022-08-24T18:24:22;31.10;46.10
7666;DHT22;3875;46.562;4.898;2022-08-24T18:26:49;31.00;46.10
7666;DHT22;3875;46.562;4.898;2022-08-24T18:29:18;30.80;46.40
7666;DHT22;3875;46.562;4.898;2022-08-24T18:31:45;30.60;46.90
7666;DHT22;3875;46.562;4.898;2022-08-24T18:34:14;30.50;47.00
7666;DHT22;3875;46.562;4.898;2022-08-24T18:36:40;30.30;47.00
7666;DHT22;3875;46.562;4.898;2022-08-24T18:39:06;30.10;47.20
7666;DHT22;3875;46.562;4.898;2022-08-24T18:41:36;29.90;47.50
7666;DHT22;3875;46.562;4.898;2022-08-24T18:44:04;29.80;47.90
7666;DHT22;3875;46.562;4.898;2022-08-24T18:46:30;29.70;48.20
7666;DHT22;3875;46.562;4.898;2022-08-24T18:48:57;29.60;48.30
7666;DHT22;3875;46.562;4.898;2022-08-24T18:51:23;29.40;48.60
7666;DHT22;3875;46.562;4.898;2022-08-24T18:54:11;29.10;49.00
7666;DHT22;3875;46.562;4.898;2022-08-24T18:56:38;28.90;49.30
7666;DHT22;3875;46.562;4.898;2022-08-24T18:59:04;28.70;49.50
7666;DHT22;3875;46.562;4.898;2022-08-24T19:01:32;28.60;49.80
7666;DHT22;3875;46.562;4.898;2022-08-24T19:04:18;28.50;50.00
7666;DHT22;3875;46.562;4.898;2022-08-24T19:06:44;28.40;50.10
7666;DHT22;3875;46.562;4.898;2022-08-24T19:09:10;28.40;50.10
7666;DHT22;3875;46.562;4.898;2022-08-24T19:11:35;28.40;50.20
7666;DHT22;3875;46.562;4.898;2022-08-24T19:14:01;28.40;50.00
7666;DHT22;3875;46.562;4.898;2022-08-24T19:16:27;28.30;50.20
7666;DHT22;3875;46.562;4.898;2022-08-24T19:18:53;28.30;50.00
7666;DHT22;3875;46.562;4.898;2022-08-24T19:21:19;28.20;49.90
7666;DHT22;3875;46.562;4.898;2022-08-24T19:23:45;28.10;50.00
7666;DHT22;3875;46.562;4.898;2022-08-24T19:26:11;28.00;50.10
7666;DHT22;3875;46.562;4.898;2022-08-24T19:28:38;27.90;50.30
7666;DHT22;3875;46.562;4.898;2022-08-24T19:31:09;27.90;50.40
7666;DHT22;3875;46.562;4.898;2022-08-24T19:33:43;27.90;50.30
7666;DHT22;3875;46.562;4.898;2022-08-24T19:36:11;27.90;50.50
7666;DHT22;3875;46.562;4.898;2022-08-24T19:38:37;27.70;51.20
7666;DHT22;3875;46.562;4.898;2022-08-24T19:41:04;27.50;51.40
7666;DHT22;3875;46.562;4.898;2022-08-24T19:43:31;27.40;51.90
7666;DHT22;3875;46.562;4.898;2022-08-24T19:45:57;27.40;52.20
7666;DHT22;3875;46.562;4.898;2022-08-24T19:48:27;27.40;52.40
7666;DHT22;3875;46.562;4.898;2022-08-24T19:50:53;27.40;52.40
7666;DHT22;3875;46.562;4.898;2022-08-24T19:53:20;27.40;52.40
7666;DHT22;3875;46.562;4.898;2022-08-24T19:55:46;27.40;52.40
7666;DHT22;3875;46.562;4.898;2022-08-24T19:58:27;27.40;52.00
7666;DHT22;3875;46.562;4.898;2022-08-24T20:03:42;27.30;51.80
7666;DHT22;3875;46.562;4.898;2022-08-24T20:06:10;27.10;51.90
7666;DHT22;3875;46.562;4.898;2022-08-24T20:08:37;27.00;52.00
7666;DHT22;3875;46.562;4.898;2022-08-24T20:11:05;27.00;52.30
7666;DHT22;3875;46.562;4.898;2022-08-24T20:13:31;27.00;52.10
7666;DHT22;3875;46.562;4.898;2022-08-24T20:15:57;27.10;52.00
7666;DHT22;3875;46.562;4.898;2022-08-24T20:18:31;27.10;52.00
7666;DHT22;3875;46.562;4.898;2022-08-24T20:20:58;27.10;51.90
7666;DHT22;3875;46.562;4.898;2022-08-24T20:23:24;27.10;51.80
7666;DHT22;3875;46.562;4.898;2022-08-24T20:25:50;27.10;51.70
7666;DHT22;3875;46.562;4.898;2022-08-24T20:28:16;27.10;51.70
7666;DHT22;3875;46.562;4.898;2022-08-24T20:30:42;27.00;51.60
7666;DHT22;3875;46.562;4.898;2022-08-24T20:33:14;26.80;51.80
7666;DHT22;3875;46.562;4.898;2022-08-24T20:35:40;26.70;52.00
7666;DHT22;3875;46.562;4.898;2022-08-24T20:38:06;26.60;52.30
7666;DHT22;3875;46.562;4.898;2022-08-24T20:40:32;26.50;52.50